Time;durP1;ratioP1;P1;durP2;ratioP2;P2;SDS_P1;SDS_P2;PMS_P1;PMS_P2;Temp;Humidity;BMP_temperature;BMP_pressure;BME280_temperature;BME280_humidity;BME280_pressure;Samples;Min_cycle;Max_cycle;Signal;HPM_P1;HPM_P2
2022/06/04 00:00:34;;;;;;;9.10;8.40;;;19.60;92.20;;;;;;4916564;29;20418;-71
2022/06/04 00:02:59;;;;;;;9.37;8.67;;;19.60;91.90;;;;;;4916629;29;20469;-71
2022/06/04 00:05:28;;;;;;;10.60;9.80;;;19.60;91.80;;;;;;4916153;29;20417;-71
2022/06/04 00:07:59;;;;;;;14.70;13.40;;;19.50;92.40;;;;;;4916636;29;20615;-71
2022/06/04 00:16:02;;;;;;;11.13;10.00;;;19.50;93.00;;;;;;4916550;29;20409;-71
2022/06/04 00:18:28;;;;;;;21.73;19.43;;;19.50;93.70;;;;;;4915434;29;20512;-71
2022/06/04 00:20:54;;;;;;;23.10;20.53;;;19.40;93.90;;;;;;4899723;29;20457;-71
2022/06/04 00:23:21;;;;;;;13.63;12.50;;;19.40;94.20;;;;;;4915586;29;20726;-71
2022/06/04 00:25:50;;;;;;;10.17;9.37;;;19.40;94.60;;;;;;4916792;29;20422;-71
2022/06/04 00:28:19;;;;;;;16.27;14.67;;;19.40;93.80;;;;;;4915231;29;20994;-71
2022/06/04 00:30:45;;;;;;;8.57;7.97;;;19.40;93.90;;;;;;4916029;29;20477;-71
2022/06/04 00:33:11;;;;;;;13.97;12.70;;;19.40;93.40;;;;;;4915776;29;20509;-71
2022/06/04 00:35:37;;;;;;;15.27;13.80;;;19.30;93.10;;;;;;4916011;29;20501;-71
2022/06/04 00:38:04;;;;;;;12.63;11.47;;;19.20;94.30;;;;;;4916201;29;20465;-71
2022/06/04 00:41:03;;;;;;;13.43;12.10;;;19.20;94.80;;;;;;4915233;29;20962;-71
2022/06/04 00:43:29;;;;;;;10.50;9.63;;;19.20;94.00;;;;;;4915459;29;20422;-71
2022/06/04 00:46:31;;;;;;;14.03;12.70;;;19.20;94.30;;;;;;4915449;29;20482;-72
2022/06/04 00:48:57;;;;;;;11.50;10.50;;;19.20;94.40;;;;;;4916252;29;20477;-71
2022/06/04 00:51:25;;;;;;;14.17;12.80;;;19.10;94.30;;;;;;4915368;29;20422;-71
2022/06/04 00:53:51;;;;;;;9.60;8.90;;;19.10;94.30;;;;;;4916128;29;20170;-71
2022/06/04 00:56:47;;;;;;;11.40;10.50;;;19.10;93.70;;;;;;4915312;29;20473;-71
2022/06/04 00:59:24;;;;;;;12.57;11.37;;;19.10;93.70;;;;;;4915374;29;20403;-71
2022/06/04 01:01:53;;;;;;;14.33;13.07;;;19.00;94.00;;;;;;4915872;29;20468;-71
2022/06/04 01:04:55;;;;;;;9.87;9.07;;;19.00;94.80;;;;;;4915176;29;20419;-71
2022/06/04 01:07:39;;;;;;;12.47;11.40;;;19.00;94.20;;;;;;4929868;29;20422;-71
2022/06/04 01:10:10;;;;;;;10.60;9.80;;;19.00;95.40;;;;;;4915984;29;20411;-71
2022/06/04 01:12:42;;;;;;;10.10;9.30;;;19.00;94.00;;;;;;4898793;29;20509;-71
2022/06/04 01:15:30;;;;;;;9.47;8.77;;;19.00;93.40;;;;;;4915767;29;20399;-71
2022/06/04 01:18:12;;;;;;;9.47;8.77;;;18.90;94.20;;;;;;4915797;29;20403;-71
2022/06/04 01:20:55;;;;;;;10.47;9.63;;;18.80;94.70;;;;;;4935035;29;20426;-71
2022/06/04 01:23:27;;;;;;;8.97;8.27;;;18.80;94.80;;;;;;4933952;29;20455;-71
2022/06/04 01:26:01;;;;;;;12.10;10.97;;;18.80;94.80;;;;;;4934850;29;20500;-71
2022/06/04 01:28:29;;;;;;;12.77;11.60;;;18.70;95.10;;;;;;4933901;29;20421;-71
2022/06/04 01:31:00;;;;;;;9.23;8.50;;;18.70;95.10;;;;;;4934872;29;20488;-71
2022/06/04 01:33:45;;;;;;;9.50;8.70;;;18.60;94.90;;;;;;4933936;29;20398;-71
2022/06/04 01:36:19;;;;;;;9.10;7.63;;;18.60;94.40;;;;;;4934497;29;20776;-77
2022/06/04 01:39:13;;;;;;;11.90;10.80;;;18.60;94.90;;;;;;4934526;29;20889;-71
2022/06/04 01:41:54;;;;;;;14.20;13.00;;;18.50;94.60;;;;;;4934492;29;20445;-71
2022/06/04 01:44:31;;;;;;;8.67;7.97;;;18.60;95.40;;;;;;4934018;29;20464;-71
2022/06/04 01:47:01;;;;;;;8.90;8.30;;;18.50;94.30;;;;;;4934672;29;20413;-71
2022/06/04 01:49:39;;;;;;;9.20;8.40;;;18.50;94.70;;;;;;4933577;29;20504;-71
2022/06/04 01:52:11;;;;;;;9.80;9.00;;;18.50;94.70;;;;;;4934689;29;20440;-71
2022/06/04 01:54:49;;;;;;;10.17;9.10;;;18.50;95.60;;;;;;4917094;29;20487;-71
2022/06/04 01:57:24;;;;;;;9.73;8.93;;;18.50;95.30;;;;;;4936054;29;20889;-75
2022/06/04 02:00:07;;;;;;;11.93;10.90;;;18.50;96.10;;;;;;4937956;29;20405;-71
2022/06/04 02:02:40;;;;;;;15.80;14.07;;;18.40;96.80;;;;;;4937196;29;20773;-71
2022/06/04 02:05:12;;;;;;;8.43;7.73;;;18.50;96.50;;;;;;4937924;29;20953;-71
2022/06/04 02:07:43;;;;;;;14.20;12.90;;;18.50;95.00;;;;;;4937184;29;20901;-71
2022/06/04 02:10:48;;;;;;;13.83;12.53;;;18.50;95.80;;;;;;4937796;29;20406;-71
2022/06/04 02:13:15;;;;;;;11.03;10.13;;;18.50;96.50;;;;;;4936397;29;20429;-77
2022/06/04 02:15:51;;;;;;;13.33;12.10;;;18.50;95.90;;;;;;4920642;29;20418;-71
2022/06/04 02:18:16;;;;;;;13.53;12.23;;;18.60;96.50;;;;;;4934580;29;20421;-76
2022/06/04 02:20:42;;;;;;;17.53;15.77;;;18.60;96.00;;;;;;4918674;29;20871;-71
2022/06/04 02:23:09;;;;;;;15.00;13.63;;;18.60;95.60;;;;;;4918236;29;20201;-71
2022/06/04 02:25:35;;;;;;;10.27;9.20;;;18.70;96.40;;;;;;4917451;29;20417;-71
2022/06/04 02:28:02;;;;;;;10.90;10.00;;;18.70;95.70;;;;;;4918426;29;20446;-71
2022/06/04 02:30:57;;;;;;;11.07;10.00;;;18.80;95.90;;;;;;4900753;29;20410;-71
2022/06/04 02:33:33;;;;;;;9.80;9.00;;;18.80;95.40;;;;;;4898810;29;20525;-71
2022/06/04 02:36:34;;;;;;;13.73;12.40;;;18.70;96.10;;;;;;4918389;29;20416;-71
2022/06/04 02:39:10;;;;;;;12.73;11.53;;;18.70;96.20;;;;;;4905656;29;20475;-71
2022/06/04 02:41:51;;;;;;;8.33;7.53;;;18.80;96.10;;;;;;4917555;29;21172;-71
2022/06/04 02:44:26;;;;;;;9.27;8.57;;;18.70;95.80;;;;;;4917786;29;20406;-77
2022/06/04 02:47:02;;;;;;;8.07;7.37;;;18.70;95.80;;;;;;4918141;29;20402;-71
2022/06/04 02:49:40;;;;;;;8.63;8.03;;;18.70;95.20;;;;;;4899292;29;20422;-71
2022/06/04 02:52:09;;;;;;;8.50;7.60;;;18.60;95.10;;;;;;4900459;29;20437;-71
2022/06/04 02:54:41;;;;;;;9.60;8.90;;;18.60;95.30;;;;;;4917229;29;20418;-71
2022/06/04 02:57:11;;;;;;;9.73;8.73;;;18.50;96.20;;;;;;4917972;29;20750;-71
2022/06/04 02:59:38;;;;;;;14.03;12.63;;;18.40;96.80;;;;;;4916822;29;20394;-71
2022/06/04 03:02:08;;;;;;;9.40;8.57;;;18.40;97.20;;;;;;4917922;29;20461;-71
2022/06/04 03:04:47;;;;;;;10.07;9.27;;;18.40;97.50;;;;;;4917000;29;20527;-71
2022/06/04 03:07:13;;;;;;;12.57;11.27;;;18.40;97.10;;;;;;4917777;29;20519;-71
2022/06/04 03:09:39;;;;;;;10.10;9.13;;;18.40;97.30;;;;;;4916340;29;20919;-71
2022/06/04 03:12:07;;;;;;;10.80;9.80;;;18.40;96.90;;;;;;4917618;29;20430;-71
2022/06/04 03:14:33;;;;;;;11.17;10.17;;;18.40;96.70;;;;;;4931326;29;20426;-71
2022/06/04 03:16:59;;;;;;;10.30;9.50;;;18.40;97.00;;;;;;4917681;29;20417;-71
2022/06/04 03:19:24;;;;;;;11.10;10.00;;;18.40;97.00;;;;;;4916407;29;20469;-71
2022/06/04 03:21:50;;;;;;;8.83;8.07;;;18.40;96.80;;;;;;4917444;29;20210;-71
2022/06/04 03:24:16;;;;;;;8.20;7.60;;;18.40;96.40;;;;;;4900317;29;20658;-74
2022/06/04 03:26:42;;;;;;;8.60;8.00;;;18.40;95.90;;;;;;4916815;29;20182;-71
2022/06/04 03:29:08;;;;;;;8.77;7.63;;;18.40;95.60;;;;;;4917396;29;20422;-71
2022/06/04 03:31:34;;;;;;;8.57;7.97;;;18.30;95.60;;;;;;4916536;29;20418;-71
2022/06/04 03:34:00;;;;;;;8.03;7.43;;;18.30;96.10;;;;;;4916998;29;20206;-71
2022/06/04 03:36:26;;;;;;;7.80;7.30;;;18.20;95.40;;;;;;4916421;29;20186;-71
2022/06/04 03:38:55;;;;;;;8.33;7.73;;;18.10;95.50;;;;;;4917156;29;20477;-71
2022/06/04 03:41:21;;;;;;;8.73;8.03;;;18.00;95.70;;;;;;4916345;29;20507;-77
2022/06/04 03:43:51;;;;;;;8.50;8.00;;;18.00;96.50;;;;;;4917081;29;20899;-71
2022/06/04 03:46:24;;;;;;;8.83;8.13;;;18.00;96.20;;;;;;4900126;29;20407;-75
2022/06/04 03:48:49;;;;;;;9.13;8.50;;;18.00;96.20;;;;;;4917069;29;20418;-71
2022/06/04 03:51:15;;;;;;;10.70;9.60;;;17.90;96.30;;;;;;4916915;29;20426;-71
2022/06/04 03:53:41;;;;;;;10.23;9.33;;;17.90;96.50;;;;;;4898948;29;20246;-71
2022/06/04 03:56:06;;;;;;;9.67;8.77;;;17.90;96.80;;;;;;4916906;29;20559;-71
2022/06/04 03:58:32;;;;;;;9.50;8.60;;;17.80;97.00;;;;;;4916034;29;20179;-71
2022/06/04 04:00:58;;;;;;;9.77;8.83;;;17.80;96.90;;;;;;4916990;29;20179;-71
2022/06/04 04:03:24;;;;;;;9.10;7.90;;;17.80;97.10;;;;;;4916051;29;20256;-71
2022/06/04 04:05:53;;;;;;;10.70;9.80;;;17.80;97.20;;;;;;4916816;29;20580;-71
2022/06/04 04:08:21;;;;;;;8.90;8.10;;;17.80;97.70;;;;;;4916520;29;20836;-80
2022/06/04 04:10:48;;;;;;;9.23;8.43;;;17.70;97.50;;;;;;4916408;29;20418;-69
2022/06/04 04:13:16;;;;;;;9.80;8.90;;;17.80;97.70;;;;;;4916767;29;20434;-69
2022/06/04 04:15:42;;;;;;;9.70;8.80;;;17.70;97.80;;;;;;4915715;29;20956;-69
2022/06/04 04:18:08;;;;;;;10.20;8.87;;;17.70;98.30;;;;;;4916454;29;20419;-69
2022/06/04 04:20:37;;;;;;;8.13;7.33;;;17.60;98.00;;;;;;4915693;29;20418;-69
2022/06/04 04:23:06;;;;;;;9.93;8.97;;;17.60;98.10;;;;;;4916349;29;20450;-69
2022/06/04 04:25:33;;;;;;;9.33;8.53;;;17.60;97.80;;;;;;4915413;29;20986;-69
2022/06/04 04:28:00;;;;;;;9.70;8.90;;;17.60;98.00;;;;;;4916371;29;20425;-69
2022/06/04 04:30:29;;;;;;;10.60;9.70;;;17.50;98.00;;;;;;4915564;29;20415;-69
2022/06/04 04:32:56;;;;;;;9.37;8.47;;;17.50;98.00;;;;;;4916396;29;20414;-69
2022/06/04 04:35:28;;;;;;;10.00;9.10;;;17.50;97.90;;;;;;4916234;29;20427;-78
2022/06/04 04:37:54;;;;;;;8.37;7.77;;;17.40;98.20;;;;;;4899855;29;20462;-72
2022/06/04 04:40:23;;;;;;;9.70;8.80;;;17.40;98.50;;;;;;4930983;29;20427;-76
2022/06/04 04:42:49;;;;;;;8.77;8.10;;;17.50;98.50;;;;;;4916090;29;20454;-73
2022/06/04 04:45:17;;;;;;;9.30;8.67;;;17.40;98.40;;;;;;4930931;29;20526;-73
2022/06/04 04:47:45;;;;;;;9.37;8.57;;;17.50;98.80;;;;;;4915828;29;20179;-72
2022/06/04 04:50:21;;;;;;;8.43;7.80;;;17.50;98.90;;;;;;4916627;29;20843;-72
2022/06/04 04:52:47;;;;;;;8.87;8.00;;;17.50;99.00;;;;;;4916745;29;20822;-72
2022/06/04 04:55:13;;;;;;;8.07;7.47;;;17.50;98.90;;;;;;4917171;29;20914;-72
2022/06/04 04:57:39;;;;;;;8.23;7.63;;;17.50;98.80;;;;;;4915899;29;20434;-72
2022/06/04 05:00:07;;;;;;;9.00;8.00;;;17.50;99.00;;;;;;4916679;29;20454;-72
2022/06/04 05:02:33;;;;;;;9.43;8.73;;;17.50;98.80;;;;;;4915762;29;20210;-72
2022/06/04 05:04:59;;;;;;;8.77;8.17;;;17.50;99.00;;;;;;4916359;29;20417;-72
2022/06/04 05:07:25;;;;;;;9.17;8.37;;;17.60;98.70;;;;;;4915479;29;20418;-73
2022/06/04 05:09:51;;;;;;;9.47;8.57;;;17.60;98.50;;;;;;4916309;29;20213;-72
2022/06/04 05:12:16;;;;;;;9.60;8.90;;;17.60;98.50;;;;;;4916296;29;20182;-72
2022/06/04 05:14:42;;;;;;;9.23;8.53;;;17.60;99.00;;;;;;4915465;29;20420;-72
2022/06/04 05:17:08;;;;;;;8.93;8.20;;;17.50;98.30;;;;;;4916547;29;20580;-72
2022/06/04 05:19:35;;;;;;;9.17;8.57;;;17.50;98.50;;;;;;4915478;29;20481;-73
2022/06/04 05:22:01;;;;;;;8.83;8.00;;;17.50;98.60;;;;;;4916154;29;20526;-72
2022/06/04 05:24:33;;;;;;;9.27;8.47;;;17.50;98.80;;;;;;4899054;29;20418;-73
2022/06/04 05:26:58;;;;;;;8.53;7.93;;;17.60;98.60;;;;;;4916347;29;20403;-73
2022/06/04 05:29:24;;;;;;;8.93;8.13;;;17.30;98.20;;;;;;4915264;29;20564;-74
2022/06/04 05:31:52;;;;;;;8.47;7.60;;;17.20;98.70;;;;;;4917649;29;20186;-72
2022/06/04 05:34:18;;;;;;;8.97;8.17;;;17.10;99.40;;;;;;4919755;29;20580;-72
2022/06/04 05:36:46;;;;;;;7.73;7.03;;;17.20;99.60;;;;;;4919151;29;20414;-73
2022/06/04 05:39:13;;;;;;;9.10;8.30;;;17.30;99.50;;;;;;4919645;29;20501;-72
2022/06/04 05:41:39;;;;;;;8.10;7.50;;;17.40;99.60;;;;;;4919259;29;20450;-73
2022/06/04 05:44:05;;;;;;;8.10;7.60;;;17.40;99.20;;;;;;4934218;29;21013;-73
2022/06/04 05:46:31;;;;;;;8.37;7.67;;;17.40;98.50;;;;;;4919038;29;20427;-72
2022/06/04 05:48:59;;;;;;;8.20;7.43;;;17.30;99.00;;;;;;4902560;29;20459;-72
2022/06/04 05:51:28;;;;;;;8.17;7.33;;;17.30;98.90;;;;;;4919334;29;20190;-77
2022/06/04 05:53:54;;;;;;;7.80;7.30;;;17.50;99.50;;;;;;4919474;29;20806;-72
2022/06/04 05:56:24;;;;;;;8.67;7.87;;;17.50;98.90;;;;;;4919368;29;20411;-72
2022/06/04 05:58:51;;;;;;;8.27;7.67;;;17.60;99.30;;;;;;4918531;29;20950;-72
2022/06/04 06:01:19;;;;;;;8.67;7.93;;;17.60;98.60;;;;;;4933600;29;20422;-73
2022/06/04 06:03:46;;;;;;;8.07;7.57;;;17.60;98.70;;;;;;4918941;29;20673;-72
2022/06/04 06:06:18;;;;;;;8.07;7.40;;;17.60;98.90;;;;;;4919210;29;20861;-72
2022/06/04 06:08:44;;;;;;;8.40;7.70;;;17.70;99.00;;;;;;4918568;29;20418;-73
2022/06/04 06:11:11;;;;;;;9.03;8.23;;;17.70;98.40;;;;;;4919137;29;20834;-73
2022/06/04 06:13:38;;;;;;;9.23;8.33;;;17.80;98.70;;;;;;4918251;29;20630;-73
2022/06/04 06:16:09;;;;;;;8.47;7.63;;;17.80;98.80;;;;;;4886555;29;20422;-73
2022/06/04 06:18:36;;;;;;;8.13;7.53;;;17.90;98.80;;;;;;4918206;29;20462;-72
2022/06/04 06:21:06;;;;;;;7.90;7.23;;;17.90;98.50;;;;;;4919264;29;20430;-72
2022/06/04 06:23:32;;;;;;;8.03;7.43;;;17.90;98.20;;;;;;4918281;29;20462;-72
2022/06/04 06:26:04;;;;;;;8.30;7.60;;;18.00;98.20;;;;;;4919040;29;20421;-72
2022/06/04 06:28:30;;;;;;;7.97;7.17;;;17.90;97.90;;;;;;4918394;29;20253;-73
2022/06/04 06:30:55;;;;;;;7.90;7.30;;;18.00;98.50;;;;;;4918774;29;20558;-72
2022/06/04 06:33:21;;;;;;;8.13;7.43;;;18.00;97.80;;;;;;4918965;29;20627;-72
2022/06/04 06:36:01;;;;;;;8.37;7.70;;;17.90;98.20;;;;;;4918145;29;20416;-73
2022/06/04 06:38:28;;;;;;;8.90;8.20;;;17.90;98.70;;;;;;4933298;29;20648;-73
2022/06/04 06:40:56;;;;;;;8.40;7.80;;;17.90;98.90;;;;;;4932977;29;20500;-72
2022/06/04 06:43:31;;;;;;;7.80;7.30;;;18.00;99.00;;;;;;4868530;29;20990;-72
2022/06/04 06:46:09;;;;;;;8.40;7.63;;;18.10;98.80;;;;;;4918363;29;20417;-73
2022/06/04 06:48:37;;;;;;;8.10;7.40;;;18.10;98.30;;;;;;4917741;29;20566;-73
2022/06/04 06:51:40;;;;;;;9.50;8.47;;;18.10;98.10;;;;;;4918590;29;20481;-72
2022/06/04 06:54:06;;;;;;;8.67;8.00;;;18.20;98.10;;;;;;4909788;29;20433;-72
2022/06/04 06:56:34;;;;;;;7.97;7.43;;;18.20;97.70;;;;;;4901205;29;20741;-72
2022/06/04 06:59:02;;;;;;;8.33;7.73;;;18.30;98.10;;;;;;4901206;29;20456;-72
2022/06/04 07:01:28;;;;;;;8.27;7.57;;;18.40;98.10;;;;;;4918201;29;20501;-72
2022/06/04 07:03:55;;;;;;;8.67;8.00;;;18.40;98.40;;;;;;4918219;29;20419;-72
2022/06/04 07:06:37;;;;;;;8.03;7.47;;;18.50;98.00;;;;;;4901319;29;20752;-73
2022/06/04 07:09:10;;;;;;;9.17;8.57;;;18.60;98.00;;;;;;4918093;29;20418;-72
2022/06/04 07:11:35;;;;;;;9.10;8.50;;;18.60;97.60;;;;;;4917635;29;20407;-73
2022/06/04 07:14:01;;;;;;;8.70;8.20;;;18.60;98.10;;;;;;4918163;29;20921;-73
2022/06/04 07:16:27;;;;;;;10.47;9.67;;;18.60;97.30;;;;;;4918312;29;20196;-72
2022/06/04 07:18:53;;;;;;;8.67;8.10;;;18.60;97.40;;;;;;4917426;29;20569;-72
2022/06/04 07:21:19;;;;;;;9.07;8.33;;;18.60;97.20;;;;;;4901034;29;20647;-72
2022/06/04 07:23:45;;;;;;;8.77;8.13;;;18.70;97.60;;;;;;4917344;29;20183;-72
2022/06/04 07:26:12;;;;;;;9.47;8.73;;;18.80;97.60;;;;;;4917569;29;20620;-72
2022/06/04 07:28:39;;;;;;;9.80;9.00;;;18.90;97.60;;;;;;4917181;29;20415;-72
2022/06/04 07:31:06;;;;;;;9.43;8.53;;;18.90;96.40;;;;;;4900898;29;20411;-72
2022/06/04 07:33:32;;;;;;;10.30;9.50;;;18.70;96.90;;;;;;4917168;29;20469;-73
2022/06/04 07:35:59;;;;;;;8.80;8.20;;;18.80;97.20;;;;;;4917615;29;20817;-72
2022/06/04 07:38:25;;;;;;;9.43;8.57;;;18.90;97.30;;;;;;4917908;29;20465;-72
2022/06/04 07:40:50;;;;;;;9.27;8.67;;;19.10;97.90;;;;;;4917264;29;20454;-72
2022/06/04 07:43:17;;;;;;;8.47;7.87;;;19.20;97.40;;;;;;4900566;29;20469;-72
2022/06/04 07:45:43;;;;;;;9.97;9.07;;;19.20;96.60;;;;;;4916985;29;20191;-73
2022/06/04 07:48:09;;;;;;;9.27;8.40;;;19.20;96.10;;;;;;4917375;29;21598;-72
2022/06/04 07:50:37;;;;;;;10.10;9.30;;;19.20;96.70;;;;;;4916892;29;20497;-73
2022/06/04 07:53:03;;;;;;;8.87;8.17;;;19.30;96.70;;;;;;4917520;29;20454;-73
2022/06/04 07:55:29;;;;;;;8.10;7.60;;;19.40;97.10;;;;;;4917028;29;20445;-72
2022/06/04 07:57:56;;;;;;;10.10;9.40;;;19.60;98.20;;;;;;4916644;29;20626;-73
2022/06/04 08:00:23;;;;;;;9.80;9.10;;;19.70;97.50;;;;;;4917284;29;20414;-73
2022/06/04 08:02:53;;;;;;;9.70;8.80;;;19.90;97.20;;;;;;4916685;29;20475;-73
2022/06/04 08:05:19;;;;;;;10.53;9.60;;;20.00;96.80;;;;;;4917073;29;20418;-72
2022/06/04 08:07:45;;;;;;;9.80;9.20;;;20.10;96.10;;;;;;4916581;29;20418;-72
2022/06/04 08:10:12;;;;;;;9.30;8.70;;;20.20;96.30;;;;;;4900304;29;20333;-72
2022/06/04 08:12:48;;;;;;;9.87;9.10;;;20.40;96.10;;;;;;4867554;29;20521;-73
2022/06/04 08:15:16;;;;;;;9.87;9.17;;;20.50;96.40;;;;;;4916991;29;20407;-72
2022/06/04 08:17:42;;;;;;;10.40;8.40;;;20.60;96.10;;;;;;4899346;29;20422;-73
2022/06/04 08:20:09;;;;;;;8.60;7.97;;;20.60;95.50;;;;;;4916963;29;20841;-72
2022/06/04 08:22:35;;;;;;;9.13;8.53;;;20.70;95.60;;;;;;4916265;29;20296;-74
2022/06/04 08:25:01;;;;;;;9.80;9.10;;;20.70;95.60;;;;;;4916873;29;20434;-73
2022/06/04 08:27:27;;;;;;;9.93;9.10;;;20.80;95.40;;;;;;4916738;29;20419;-73
2022/06/04 08:29:53;;;;;;;9.73;8.80;;;20.80;95.40;;;;;;4916074;29;20426;-73
2022/06/04 08:32:18;;;;;;;9.70;9.00;;;20.80;95.10;;;;;;4916475;29;20182;-72
2022/06/04 08:34:44;;;;;;;9.47;8.77;;;20.90;96.30;;;;;;4916038;29;20234;-72
2022/06/04 08:37:10;;;;;;;10.07;9.10;;;20.90;95.40;;;;;;4916677;29;20903;-73
2022/06/04 08:39:36;;;;;;;9.77;9.07;;;21.00;96.00;;;;;;4916070;29;20262;-74
2022/06/04 08:42:02;;;;;;;9.77;8.97;;;21.00;95.70;;;;;;4916471;29;20260;-73
2022/06/04 08:44:31;;;;;;;10.57;9.67;;;21.10;95.40;;;;;;4916542;29;20914;-73
2022/06/04 08:47:02;;;;;;;9.57;8.87;;;21.10;95.10;;;;;;4915709;29;20179;-72
2022/06/04 08:49:34;;;;;;;9.20;8.53;;;21.20;95.20;;;;;;4916641;29;20423;-73
2022/06/04 08:52:03;;;;;;;10.50;9.60;;;21.20;94.80;;;;;;4916281;29;20407;-73
2022/06/04 08:57:32;;;;;;;9.47;8.77;;;21.30;94.70;;;;;;4916539;29;20446;-73
2022/06/04 09:00:03;;;;;;;9.43;8.63;;;21.30;94.80;;;;;;4915845;29;20407;-72
2022/06/04 09:02:51;;;;;;;10.63;9.83;;;21.30;95.00;;;;;;4916524;29;20835;-72
2022/06/04 09:05:41;;;;;;;9.40;8.60;;;21.40;94.40;;;;;;4916137;29;20989;-72
2022/06/04 09:08:17;;;;;;;10.57;9.77;;;21.40;94.40;;;;;;4920134;29;20414;-72
2022/06/04 09:10:58;;;;;;;10.37;9.67;;;21.40;94.50;;;;;;4919399;29;20403;-72
2022/06/04 09:13:32;;;;;;;10.50;9.60;;;21.40;94.60;;;;;;4920161;29;20473;-72
2022/06/04 09:16:04;;;;;;;9.90;9.10;;;21.40;95.10;;;;;;4919592;29;20394;-72
2022/06/04 09:18:34;;;;;;;10.50;9.70;;;21.40;94.50;;;;;;4907719;29;20461;-72
2022/06/04 09:21:02;;;;;;;10.13;9.33;;;21.50;94.20;;;;;;4938561;29;20774;-72
2022/06/04 09:23:34;;;;;;;9.40;8.80;;;21.60;94.30;;;;;;4937443;29;20469;-72
2022/06/04 09:26:12;;;;;;;9.63;8.93;;;21.70;94.60;;;;;;4938383;29;20418;-73
2022/06/04 09:28:47;;;;;;;10.53;9.50;;;21.80;95.20;;;;;;4938639;29;20835;-74
2022/06/04 09:31:27;;;;;;;10.13;9.23;;;21.90;94.10;;;;;;4937902;29;20417;-72
2022/06/04 09:34:01;;;;;;;9.97;9.27;;;22.10;95.80;;;;;;4938317;29;20504;-73
2022/06/04 09:36:37;;;;;;;10.67;9.77;;;22.30;94.40;;;;;;4938882;29;20414;-70
2022/06/04 09:39:25;;;;;;;9.03;8.43;;;22.50;92.80;;;;;;4938706;29;20421;-72
2022/06/04 09:41:57;;;;;;;10.50;9.67;;;22.50;93.80;;;;;;4937354;29;20481;-72
2022/06/04 09:44:24;;;;;;;9.43;8.73;;;22.40;92.50;;;;;;4938801;29;20414;-72
2022/06/04 09:47:00;;;;;;;10.00;9.20;;;22.50;91.90;;;;;;4936898;29;20452;-72
2022/06/04 09:49:58;;;;;;;9.80;8.80;;;22.50;93.20;;;;;;4938816;29;20520;-71
2022/06/04 09:52:39;;;;;;;10.10;9.10;;;22.70;92.70;;;;;;4934050;29;20456;-72
2022/06/04 09:55:22;;;;;;;10.70;9.70;;;22.80;93.20;;;;;;4938646;29;20409;-72
2022/06/04 09:58:05;;;;;;;8.93;8.30;;;22.90;92.20;;;;;;4937898;29;20508;-72
2022/06/04 10:00:34;;;;;;;8.90;8.20;;;23.00;92.20;;;;;;4938570;29;20421;-72
2022/06/04 10:03:14;;;;;;;9.40;8.70;;;23.00;92.40;;;;;;4936164;29;20472;-72
2022/06/04 10:05:48;;;;;;;9.20;8.50;;;23.00;92.30;;;;;;4938078;29;20840;-74
2022/06/04 10:08:19;;;;;;;9.60;8.90;;;22.90;91.40;;;;;;4938473;29;20818;-72
2022/06/04 10:10:45;;;;;;;9.83;9.13;;;22.80;91.90;;;;;;4936463;29;20449;-73
2022/06/04 10:16:20;;;;;;;14.17;12.90;;;22.70;91.20;;;;;;4937464;29;20442;-73
2022/06/04 10:19:02;;;;;;;14.63;13.33;;;22.70;91.60;;;;;;4896905;29;20566;-73
2022/06/04 10:21:34;;;;;;;11.30;10.40;;;22.70;91.90;;;;;;4897803;29;20572;-73
2022/06/04 10:24:04;;;;;;;10.57;9.87;;;22.70;91.20;;;;;;4897282;29;20434;-73
2022/06/04 10:26:47;;;;;;;11.20;10.20;;;22.60;91.60;;;;;;4897760;29;20412;-73
2022/06/04 10:29:34;;;;;;;10.13;9.33;;;22.50;91.70;;;;;;4898034;29;20466;-72
2022/06/04 10:32:10;;;;;;;9.70;9.07;;;22.60;91.40;;;;;;4897135;29;20432;-72
2022/06/04 10:34:59;;;;;;;10.33;9.53;;;22.60;91.50;;;;;;4897562;29;20559;-73
2022/06/04 10:37:37;;;;;;;9.00;8.30;;;22.60;92.50;;;;;;4897626;29;20850;-73
2022/06/04 10:40:36;;;;;;;8.73;8.13;;;22.70;92.90;;;;;;4897016;29;20446;-73
2022/06/04 10:43:29;;;;;;;9.40;8.80;;;22.70;91.90;;;;;;4912418;29;20727;-73
2022/06/04 10:46:35;;;;;;;8.90;8.23;;;22.70;91.60;;;;;;4896871;29;20431;-73
2022/06/04 10:49:27;;;;;;;8.40;7.83;;;22.60;91.80;;;;;;4828868;29;20440;-73
2022/06/04 10:52:31;;;;;;;8.43;7.83;;;22.50;91.10;;;;;;4937099;29;20417;-73
2022/06/04 10:55:05;;;;;;;8.67;8.07;;;22.50;92.40;;;;;;4924454;29;20492;-72
2022/06/04 10:57:46;;;;;;;8.80;8.10;;;22.30;91.30;;;;;;4937521;29;20398;-72
2022/06/04 11:00:11;;;;;;;9.10;8.40;;;22.40;91.90;;;;;;4937406;29;20932;-72
2022/06/04 11:03:12;;;;;;;9.30;8.40;;;22.40;91.80;;;;;;4903747;29;20464;-71
2022/06/04 11:05:45;;;;;;;8.33;7.50;;;22.50;91.60;;;;;;4919158;29;20194;-71
2022/06/04 11:08:23;;;;;;;7.97;7.37;;;22.70;91.10;;;;;;4936284;29;20410;-72
2022/06/04 11:11:03;;;;;;;7.83;7.33;;;22.80;91.70;;;;;;4936400;29;20412;-72
2022/06/04 11:13:32;;;;;;;8.77;8.17;;;22.90;91.40;;;;;;4937083;29;20823;-72
2022/06/04 11:16:18;;;;;;;9.03;8.43;;;22.80;90.00;;;;;;4936088;29;20883;-72
2022/06/04 11:18:57;;;;;;;8.33;7.73;;;22.70;90.40;;;;;;4931176;29;20509;-72
2022/06/04 11:21:41;;;;;;;8.90;8.30;;;22.60;90.00;;;;;;4917907;29;20433;-72
2022/06/04 11:24:24;;;;;;;8.67;7.97;;;22.70;91.40;;;;;;4917635;29;20434;-72
2022/06/04 11:26:57;;;;;;;9.37;8.77;;;22.90;91.30;;;;;;4917342;29;20434;-72
2022/06/04 11:29:23;;;;;;;7.50;7.00;;;23.00;90.80;;;;;;4931801;29;20434;-72
2022/06/04 11:32:06;;;;;;;8.23;7.50;;;23.10;90.70;;;;;;4917184;29;20422;-72
2022/06/04 11:35:02;;;;;;;7.87;7.37;;;23.20;90.20;;;;;;4917759;29;20513;-72
2022/06/04 11:37:47;;;;;;;7.70;7.20;;;23.30;90.80;;;;;;4900856;29;20423;-73
2022/06/04 11:40:33;;;;;;;8.80;8.20;;;23.20;88.40;;;;;;4900498;29;20445;-72
2022/06/04 11:43:07;;;;;;;7.30;6.90;;;23.20;89.30;;;;;;4916752;29;20461;-72
2022/06/04 11:45:52;;;;;;;8.80;8.20;;;23.30;90.90;;;;;;4917392;29;20409;-72
2022/06/04 11:48:32;;;;;;;7.57;7.07;;;23.40;88.90;;;;;;4917462;29;20486;-72
2022/06/04 11:51:04;;;;;;;7.47;7.07;;;23.60;91.40;;;;;;4916907;29;20406;-72
2022/06/04 11:53:38;;;;;;;10.00;7.27;;;23.70;89.90;;;;;;4917437;29;20460;-72
2022/06/04 11:56:15;;;;;;;7.53;7.03;;;23.80;90.20;;;;;;4899752;29;20778;-72
2022/06/04 11:59:01;;;;;;;8.67;7.80;;;24.00;89.00;;;;;;4917466;29;20434;-72
2022/06/04 12:01:40;;;;;;;7.63;7.13;;;24.10;89.70;;;;;;4916908;29;20478;-72
2022/06/04 12:04:16;;;;;;;7.30;6.70;;;24.30;90.10;;;;;;4916725;29;20414;-72
2022/06/04 12:06:51;;;;;;;7.87;7.40;;;24.40;88.70;;;;;;4917204;29;20417;-72
2022/06/04 12:09:46;;;;;;;7.30;6.80;;;24.50;86.90;;;;;;4917188;29;20414;-72
2022/06/04 12:12:48;;;;;;;7.80;7.20;;;24.50;87.00;;;;;;4914613;29;20438;-73
2022/06/04 12:15:17;;;;;;;7.70;7.20;;;24.70;89.50;;;;;;4917044;29;20410;-72
2022/06/04 12:17:47;;;;;;;7.93;7.43;;;24.80;87.50;;;;;;4931367;29;20945;-72
2022/06/04 12:26:36;;;;;;;8.00;7.50;;;24.70;87.20;;;;;;4916963;29;20415;-80
2022/06/04 12:29:23;;;;;;;287.93;231.50;;;24.70;87.50;;;;;;4916193;29;20402;-79
2022/06/04 12:31:55;;;;;;;82.97;74.17;;;24.50;88.50;;;;;;4899265;29;20573;-78
2022/06/04 12:34:32;;;;;;;25.97;21.13;;;24.50;87.30;;;;;;4916719;29;20987;-79
2022/06/04 12:36:59;;;;;;;23.17;20.80;;;24.30;86.30;;;;;;4915641;29;20422;-79
2022/06/04 12:39:39;;;;;;;8.30;7.80;;;24.10;87.20;;;;;;4915704;29;20426;-79
2022/06/04 12:42:33;;;;;;;8.17;7.67;;;24.20;87.50;;;;;;4913044;29;20469;-79
2022/06/04 12:45:06;;;;;;;7.60;7.20;;;24.10;86.30;;;;;;4912905;29;20518;-79
2022/06/04 12:47:37;;;;;;;9.40;8.70;;;23.90;88.10;;;;;;4913026;29;20467;-79
2022/06/04 12:50:24;;;;;;;9.63;8.83;;;23.90;88.10;;;;;;4914226;29;20426;-79
2022/06/04 12:53:06;;;;;;;9.97;9.27;;;23.80;86.60;;;;;;4914487;29;20510;-78
2022/06/04 12:55:46;;;;;;;7.63;7.23;;;23.90;88.00;;;;;;4915348;29;20820;-73
2022/06/04 12:58:36;;;;;;;17.23;15.43;;;23.80;87.00;;;;;;4897606;29;20493;-73
2022/06/04 13:01:23;;;;;;;12.40;11.40;;;23.70;87.00;;;;;;4926351;29;20414;-72
2022/06/04 13:04:02;;;;;;;20.90;18.80;;;23.30;87.60;;;;;;4920260;29;20969;-72
2022/06/04 13:06:31;;;;;;;23.83;21.40;;;23.20;87.80;;;;;;4915209;29;20909;-73
2022/06/04 13:09:06;;;;;;;19.70;17.57;;;23.10;87.00;;;;;;4924090;29;20430;-72
2022/06/04 13:12:11;;;;;;;10.97;10.10;;;22.80;87.70;;;;;;4923576;29;20568;-73
2022/06/04 13:14:53;;;;;;;8.90;8.30;;;22.80;87.90;;;;;;4903943;29;20411;-72
2022/06/04 13:17:37;;;;;;;7.33;6.83;;;22.80;88.40;;;;;;4897912;29;20441;-73
2022/06/04 13:20:18;;;;;;;23.10;20.73;;;23.00;90.30;;;;;;4914972;29;20474;-72
2022/06/04 13:22:52;;;;;;;26.60;21.63;;;23.10;88.20;;;;;;4916205;29;20493;-79
2022/06/04 13:25:32;;;;;;;16.37;14.87;;;23.30;87.50;;;;;;4884389;29;20489;-75
2022/06/04 13:27:58;;;;;;;8.30;7.50;;;23.50;89.00;;;;;;4915672;29;20461;-76